Terminal Aerodrome Forecast
Issued by NWS

Home | Current Version | Previous Version | Text Only | Print | Product List | Glossary On
Versions: 1 2 3 4 5 6 7 8 9 10 11 12 13 14
000
FTUS46 KPDT 222320
TAFBDN
TAF
KBDN 222320Z 2300/2324 20011KT P6SM SCT090
     FM230600 19007KT P6SM SCT040 BKN090
     FM231200 VRB04KT 2SM -SHSN BKN012 OVC025
     FM231900 36005KT P6SM VCSH SCT030 BKN070=

USA.gov is the U.S. government's official web portal to all federal, state and local government web resources and services.